Galeon Andalucia — EAIZ — position and weather

sailwx.info

Track history (hours):
 
Tides and Currents Weather Stations Pressure Air Temp Water Temp Dewpoint Dewpoint Depression Visibility Wind Speed Wind Dir Waves Ship Positions

Galeon Andalucia

Last reported at 2018-Apr-20 06:15 UTC. Time now 2018-Apr-23 00:19 UTC.
Position N 38°42' W 009°10'.

Length 47 m; draft 3.2 m.

Type: Ship. MMSI: 225356000.

Date/timePositionNaut miles runAvg speedWind from/ knotsBaromVisibWave heightAir tempDewpointWater temp
2018-Apr-20 06:15N 38°42' W 009°10'0 0.0
2018-Apr-20 06:00N 38°42' W 009°10'0 0.0
2018-Apr-20 05:30N 38°42' W 009°10'0 0.9
2018-Apr-20 05:00N 38°42' W 009°09'4 7.0
2018-Apr-20 04:29N 38°41' W 009°14'4 7.6
2018-Apr-20 04:00N 38°40' W 009°18'3 6.7
2018-Apr-20 03:30N 38°38' W 009°21'2 4.1
2018-Apr-20 03:00N 38°36' W 009°21'4 6.8
2018-Apr-20 02:29N 38°34' W 009°17'0 1.0
2018-Apr-20 02:00N 38°34' W 009°17'2 4.2
2018-Apr-20 01:30N 38°35' W 009°19'2 3.8
2018-Apr-20 00:58N 38°35' W 009°21'2 3.6
2018-Apr-20 00:30N 38°37' W 009°23'2 3.6
2018-Apr-20 00:00N 38°35' W 009°22'4 7.8
2018-Apr-19 23:29N 38°31' W 009°21'4 7.4
2018-Apr-19 22:58N 38°27' W 009°20'3 7.3
2018-Apr-19 22:30N 38°24' W 009°20'4 6.8
2018-Apr-19 21:56N 38°20' W 009°19'3 6.7
2018-Apr-19 21:30N 38°17' W 009°17'3 6.4
2018-Apr-19 21:00N 38°14' W 009°16'3 6.5
2018-Apr-19 20:30N 38°11' W 009°15'3 5.4
2018-Apr-19 20:00N 38°09' W 009°14'3 5.5
2018-Apr-19 19:30N 38°06' W 009°13'3 5.7
2018-Apr-19 19:00N 38°04' W 009°15'3 5.7
2018-Apr-19 18:30N 38°01' W 009°15'3 6.0
2018-Apr-19 18:01N 37°58' W 009°13'3 6.3
2018-Apr-19 17:30N 37°55' W 009°12'3 6.6
2018-Apr-19 17:00N 37°52' W 009°11'3 6.8
2018-Apr-19 16:30N 37°49' W 009°10'3 6.8
2018-Apr-19 16:00N 37°45' W 009°09'3 7.0
2018-Apr-19 15:30N 37°42' W 009°07'3 7.0
2018-Apr-19 15:00N 37°39' W 009°05'  
2018-Apr-17 07:20N 37°23' W 000°59'2 7.3
2018-Apr-17 07:00N 37°25' W 000°57'4 8.1
2018-Apr-17 06:30N 37°27' W 000°53'4 8.1
2018-Apr-17 06:00N 37°30' W 000°49'4 8.1
2018-Apr-17 05:30N 37°32' W 000°45'8 7.9
2018-Apr-17 04:28N 37°38' W 000°38'4 7.7
2018-Apr-17 04:00N 37°41' W 000°35'4 7.5
2018-Apr-17 03:30N 37°44' W 000°33'6 7.6
2018-Apr-17 02:39N 37°49' W 000°28'10 8.0
2018-Apr-17 01:28N 37°57' W 000°21'  
Track history (hours):
 
Tides and Currents Weather Stations Pressure Air Temp Water Temp Dewpoint Dewpoint Depression Visibility Wind Speed Wind Dir Waves Ship Positions

Galeon Andalucia

Last reported at 2018-Apr-20 06:15 UTC. Time now 2018-Apr-23 00:19 UTC.
Position N 38°42' W 009°10'.

Length 47 m; draft 3.2 m.

Type: Ship. MMSI: 225356000.

Date/timePositionNaut miles runAvg speedWind from/ knotsBaromVisibWave heightAir tempDewpointWater temp
2018-Apr-20 06:15N 38°42' W 009°10'0 0.0
2018-Apr-20 06:00N 38°42' W 009°10'0 0.0
2018-Apr-20 05:30N 38°42' W 009°10'0 0.9
2018-Apr-20 05:00N 38°42' W 009°09'4 7.0
2018-Apr-20 04:29N 38°41' W 009°14'4 7.6
2018-Apr-20 04:00N 38°40' W 009°18'3 6.7
2018-Apr-20 03:30N 38°38' W 009°21'2 4.1
2018-Apr-20 03:00N 38°36' W 009°21'4 6.8
2018-Apr-20 02:29N 38°34' W 009°17'0 1.0
2018-Apr-20 02:00N 38°34' W 009°17'2 4.2
2018-Apr-20 01:30N 38°35' W 009°19'2 3.8
2018-Apr-20 00:58N 38°35' W 009°21'2 3.6
2018-Apr-20 00:30N 38°37' W 009°23'2 3.6
2018-Apr-20 00:00N 38°35' W 009°22'4 7.8
2018-Apr-19 23:29N 38°31' W 009°21'4 7.4
2018-Apr-19 22:58N 38°27' W 009°20'3 7.3
2018-Apr-19 22:30N 38°24' W 009°20'4 6.8
2018-Apr-19 21:56N 38°20' W 009°19'3 6.7
2018-Apr-19 21:30N 38°17' W 009°17'3 6.4
2018-Apr-19 21:00N 38°14' W 009°16'3 6.5
2018-Apr-19 20:30N 38°11' W 009°15'3 5.4
2018-Apr-19 20:00N 38°09' W 009°14'3 5.5
2018-Apr-19 19:30N 38°06' W 009°13'3 5.7
2018-Apr-19 19:00N 38°04' W 009°15'3 5.7
2018-Apr-19 18:30N 38°01' W 009°15'3 6.0
2018-Apr-19 18:01N 37°58' W 009°13'3 6.3
2018-Apr-19 17:30N 37°55' W 009°12'3 6.6
2018-Apr-19 17:00N 37°52' W 009°11'3 6.8
2018-Apr-19 16:30N 37°49' W 009°10'3 6.8
2018-Apr-19 16:00N 37°45' W 009°09'3 7.0
2018-Apr-19 15:30N 37°42' W 009°07'3 7.0
2018-Apr-19 15:00N 37°39' W 009°05'  
2018-Apr-17 07:20N 37°23' W 000°59'2 7.3
2018-Apr-17 07:00N 37°25' W 000°57'4 8.1
2018-Apr-17 06:30N 37°27' W 000°53'4 8.1
2018-Apr-17 06:00N 37°30' W 000°49'4 8.1
2018-Apr-17 05:30N 37°32' W 000°45'8 7.9
2018-Apr-17 04:28N 37°38' W 000°38'4 7.7
2018-Apr-17 04:00N 37°41' W 000°35'4 7.5
2018-Apr-17 03:30N 37°44' W 000°33'6 7.6
2018-Apr-17 02:39N 37°49' W 000°28'10 8.0
2018-Apr-17 01:28N 37°57' W 000°21'  

Dump ship's entire track history